Andover, NJ (07821)

12:59 PM EDT on August 04, 2015 (GMT -0400)
Lake Mohawk, Hillside/Springbrook | | Change Station
CLOSE
Current Station
Personal Weather Station
Location: Sparta Township, NJ
Elevation: 869 ft
Nearby Weather Stations

Elev 869 ft 41.01 °N, 74.66 °W | Updated 16 seconds ago

Clear
Clear
80.4 °F
Feels Like 83 °F
N
1.3
Wind Variable Wind from SE
Gusts 2.5 mph

Today
High -- | Low -- °F
--% Chance of Precip.
Yesterday
High -- | Low -- °F
Precip. -- in
5:57 AM 8:11 PM
Waning Gibbous, 76% visible
Pressure 29.84 in
Visibility 10.0 miles
Clouds Few 3700 ft
Heat Index 83 °F
Dew Point 68 °F
Humidity 65%
Rainfall 0.72 in
Snow Depth Not available.
UV 7.0 out of 12
Pollen 7.80 out of 12
Air Quality Not available.
Flu Activity Not available.
METAR KFWN 041653Z AUTO 22007KT 10SM FEW037 28/19 A2985 RMK AO2 SLP104 T02830189

More Conditions Fewer Conditions

Pressure 29.84 in
Visibility 10.0 miles
Clouds Few 3700 ft
Heat Index 83 °F
Dew Point 68 °F
Humidity 65%
Rainfall 0.72 in
Snow Depth Not available.
UV 7.0 out of 12
Pollen 7.80 out of 12
Air Quality Not available.
Flu Activity Not available.
METAR KFWN 041653Z AUTO 22007KT 10SM FEW037 28/19 A2985 RMK AO2 SLP104 T02830189

More Conditions Fewer Conditions

10-Day Weather Forecast

×

Almanac

Astronomy

Aug. 04, 2015 Rise Set
Actual Time
Civil Twilight
Nautical Twilight
Astronomical Twilight
Moon
Length of Visible Light
Length of Day
Tomorrow will be .
, % of the Moon is Illuminated

Today's Extremes

State Highs State Lows

Community

WunderPhotos

Upload Photos

1,843,920 photos uploaded!

WunderBlogs® & News

Nearby

Air Quality

  Air Quality AQ Index Pollutant
Not available.

Snow Depth

Station Depth Elevation

Earthquake Activity

City Distance Mag. Time & Date
Minimum magnitude displayed is 2.5.

Coastal Water Temperatures

Place Temperature

Stations

Nearby Weather Stations

Station Location Temp. Windchill Dew Point Humidity Wind Precip. Elev Updated Type